Time;durP1;ratioP1;P1;durP2;ratioP2;P2;SDS_P1;SDS_P2;PMS_P1;PMS_P2;Temp;Humidity;BMP_temperature;BMP_pressure;BME280_temperature;BME280_humidity;BME280_pressure;Samples;Min_cycle;Max_cycle;Signal;HPM_P1;HPM_P2
2023/07/12 00:01:22;;;;;;;5.88;2.30;;;;;;;17.62;100.00;100762.34;4990039;28;20076;-91
2023/07/12 00:03:47;;;;;;;2.97;2.13;;;;;;;17.49;100.00;100741.53;4984704;28;20054;-90
2023/07/12 00:06:19;;;;;;;3.60;1.97;;;;;;;17.49;100.00;100742.31;4980897;28;20038;-90
2023/07/12 00:08:45;;;;;;;3.22;2.10;;;;;;;17.45;100.00;100735.13;4993267;28;20034;-90
2023/07/12 00:11:21;;;;;;;2.92;1.98;;;;;;;17.53;100.00;100735.19;4995708;28;20023;-90
2023/07/12 00:13:47;;;;;;;4.30;2.30;;;;;;;17.58;100.00;100749.72;4996349;28;20026;-90
2023/07/12 00:16:25;;;;;;;4.18;2.40;;;;;;;17.49;100.00;100736.13;4995786;28;20034;-90
2023/07/12 00:18:52;;;;;;;3.75;2.20;;;;;;;17.53;100.00;100758.75;4999744;28;20023;-91
2023/07/12 00:21:23;;;;;;;5.32;2.35;;;;;;;17.53;100.00;100777.72;4999497;28;20023;-91
2023/07/12 00:23:53;;;;;;;7.38;2.60;;;;;;;17.49;100.00;100771.31;4999779;28;20075;-91
2023/07/12 00:26:35;;;;;;;2.80;2.08;;;;;;;17.49;100.00;100768.63;4998862;28;20023;-91
2023/07/12 00:29:05;;;;;;;3.55;2.45;;;;;;;17.63;100.00;100774.78;4999818;28;20022;-91
2023/07/12 00:31:32;;;;;;;5.40;2.50;;;;;;;17.64;100.00;100795.34;4999464;28;20027;-91
2023/07/12 00:33:58;;;;;;;4.25;2.47;;;;;;;17.66;100.00;100801.28;4994339;28;20082;-90
2023/07/12 00:36:28;;;;;;;5.13;2.47;;;;;;;17.67;100.00;100805.59;4987373;28;20018;-91
2023/07/12 00:38:54;;;;;;;5.97;2.20;;;;;;;17.74;100.00;100807.03;4980151;28;20107;-91
2023/07/12 00:41:29;;;;;;;3.13;2.47;;;;;;;17.77;100.00;100806.44;4993520;28;20201;-93
2023/07/12 00:44:10;;;;;;;4.72;2.60;;;;;;;17.74;100.00;100801.63;4987130;28;20027;-91
2023/07/12 00:46:40;;;;;;;6.18;2.65;;;;;;;17.71;100.00;100819.31;4975734;28;20039;-91
2023/07/12 00:49:09;;;;;;;4.70;3.20;;;;;;;17.67;100.00;100823.72;4977022;28;20031;-92
2023/07/12 00:51:40;;;;;;;6.90;2.50;;;;;;;17.67;100.00;100816.41;4975991;28;20050;-92
2023/07/12 00:54:11;;;;;;;5.53;2.75;;;;;;;17.49;100.00;100801.91;4977901;28;20034;-91
2023/07/12 00:56:37;;;;;;;4.00;2.70;;;;;;;17.50;100.00;100810.84;4993678;28;20021;-92
2023/07/12 00:59:17;;;;;;;5.40;2.63;;;;;;;17.53;100.00;100824.56;4996565;28;20023;-91
2023/07/12 01:01:44;;;;;;;4.95;2.70;;;;;;;17.43;100.00;100819.41;4996839;28;20075;-91
2023/07/12 01:04:15;;;;;;;5.68;2.60;;;;;;;17.49;100.00;100818.16;4996848;28;20030;-91
2023/07/12 01:06:40;;;;;;;4.75;2.88;;;;;;;17.36;100.00;100830.63;4995324;28;20026;-92
2023/07/12 01:09:11;;;;;;;3.70;2.97;;;;;;;17.36;100.00;100844.16;4994449;28;20029;-91
2023/07/12 01:11:38;;;;;;;5.63;2.92;;;;;;;17.31;100.00;100838.88;4994642;28;20011;-92
2023/07/12 01:14:09;;;;;;;7.65;3.10;;;;;;;17.25;100.00;100843.56;4995009;28;20015;-93
2023/07/12 01:16:35;;;;;;;7.03;2.70;;;;;;;17.19;100.00;100825.03;4994479;28;20032;-92
2023/07/12 01:19:00;;;;;;;6.70;2.90;;;;;;;17.14;100.00;100800.78;4993838;28;20074;-92
2023/07/12 01:21:27;;;;;;;6.60;2.60;;;;;;;17.14;100.00;100800.78;4996693;28;20054;-93
2023/07/12 01:23:53;;;;;;;4.60;2.70;;;;;;;17.09;100.00;100820.63;4996719;28;20027;-92
2023/07/12 01:26:21;;;;;;;7.47;3.10;;;;;;;17.06;100.00;100821.25;4996423;28;20029;-92
2023/07/12 01:28:50;;;;;;;6.93;3.20;;;;;;;17.09;100.00;100810.63;4996428;28;20038;-92
2023/07/12 01:31:16;;;;;;;6.30;3.20;;;;;;;16.99;100.00;100808.09;4991080;28;20038;-93
2023/07/12 01:33:41;;;;;;;5.80;3.10;;;;;;;16.91;100.00;100812.28;4989570;28;20038;-90
2023/07/12 01:36:07;;;;;;;7.10;3.50;;;;;;;16.87;100.00;100818.59;4984995;28;20027;-92
2023/07/12 01:38:32;;;;;;;8.60;3.30;;;;;;;16.75;100.00;100798.28;4983890;28;20023;-90
2023/07/12 01:40:58;;;;;;;7.67;3.27;;;;;;;16.53;100.00;100795.44;4982460;28;20030;-90
2023/07/12 01:43:23;;;;;;;8.97;3.30;;;;;;;16.22;100.00;100768.97;4983903;28;20443;-90
2023/07/12 01:45:48;;;;;;;8.63;4.10;;;;;;;16.28;100.00;100775.88;4985221;28;20054;-91
2023/07/12 01:48:14;;;;;;;7.03;3.37;;;;;;;16.30;100.00;100771.78;4989064;28;20294;-90
2023/07/12 01:50:41;;;;;;;8.40;3.57;;;;;;;16.06;100.00;100736.81;4987101;28;20490;-90
2023/07/12 01:53:07;;;;;;;7.30;3.65;;;;;;;16.45;100.00;100797.72;4990843;28;20013;-90
2023/07/12 01:55:32;;;;;;;8.75;3.80;;;;;;;16.20;100.00;100744.91;4991624;28;20031;-89
2023/07/12 01:57:58;;;;;;;6.90;3.63;;;;;;;16.12;100.00;100730.19;4983549;28;20046;-88
2023/07/12 02:00:23;;;;;;;7.90;3.80;;;;;;;16.19;100.00;100759.53;4992820;28;20027;-90
2023/07/12 02:02:48;;;;;;;8.00;3.87;;;;;;;16.15;100.00;100751.22;4989316;28;20034;-90
2023/07/12 02:05:14;;;;;;;9.35;3.72;;;;;;;16.42;100.00;100792.13;4984273;28;20117;-89
2023/07/12 02:07:39;;;;;;;9.70;3.50;;;;;;;16.02;100.00;100752.78;4984905;28;20027;-89
2023/07/12 02:10:12;;;;;;;8.53;3.60;;;;;;;16.08;100.00;100756.19;4985189;28;20034;-90
2023/07/12 02:12:37;;;;;;;8.75;3.63;;;;;;;16.12;100.00;100768.03;4982464;28;20114;-90
2023/07/12 02:15:03;;;;;;;9.57;4.20;;;;;;;15.96;100.00;100718.03;4986433;28;20039;-89
2023/07/12 02:17:28;;;;;;;13.10;4.75;;;;;;;15.96;100.00;100726.97;4989995;28;20034;-89
2023/07/12 02:19:53;;;;;;;9.53;4.20;;;;;;;15.83;100.00;100743.88;4988746;28;20031;-89
2023/07/12 02:22:19;;;;;;;9.47;4.33;;;;;;;15.89;100.00;100796.78;4980301;28;20074;-90
2023/07/12 02:24:44;;;;;;;7.73;4.57;;;;;;;15.81;100.00;100800.09;4976354;28;20113;-89
2023/07/12 02:27:09;;;;;;;10.65;4.40;;;;;;;16.07;100.00;100805.16;4980116;28;20061;-89
2023/07/12 02:29:35;;;;;;;8.93;4.60;;;;;;;16.03;100.00;100823.88;4981081;28;20023;-89
2023/07/12 02:32:00;;;;;;;10.70;4.60;;;;;;;16.00;100.00;100816.34;4977725;28;20065;-89
2023/07/12 02:34:25;;;;;;;7.93;4.10;;;;;;;16.06;100.00;100793.56;4983934;28;20027;-90
2023/07/12 02:36:51;;;;;;;9.87;3.80;;;;;;;15.92;100.00;100757.56;4988236;28;20022;-90
2023/07/12 02:39:16;;;;;;;7.87;4.33;;;;;;;15.86;100.00;100787.38;4987854;28;20483;-90
2023/07/12 02:41:41;;;;;;;8.60;4.18;;;;;;;15.84;100.00;100789.53;4985641;28;20057;-90
2023/07/12 02:44:07;;;;;;;9.10;4.20;;;;;;;15.87;100.00;100783.59;4984239;28;20046;-89
2023/07/12 02:46:32;;;;;;;8.57;4.10;;;;;;;15.76;100.00;100782.09;4984630;28;20042;-89
2023/07/12 02:48:57;;;;;;;7.80;3.80;;;;;;;15.78;100.00;100790.72;4985762;28;20023;-90
2023/07/12 02:51:23;;;;;;;6.53;3.87;;;;;;;15.75;100.00;100780.47;4983365;28;20023;-89
2023/07/12 02:53:48;;;;;;;7.22;3.78;;;;;;;15.73;100.00;100798.88;4981310;28;20022;-89
2023/07/12 02:56:13;;;;;;;6.60;3.03;;;;;;;15.69;100.00;100804.06;4982814;28;20031;-90
2023/07/12 02:58:39;;;;;;;9.70;3.17;;;;;;;15.63;100.00;100789.03;4986014;28;20530;-90
2023/07/12 03:01:04;;;;;;;5.43;3.10;;;;;;;15.57;100.00;100784.81;4988995;28;20023;-89
2023/07/12 03:03:30;;;;;;;4.95;2.80;;;;;;;15.54;100.00;100785.41;4983906;28;20026;-89
2023/07/12 03:05:55;;;;;;;5.77;3.00;;;;;;;15.47;100.00;100793.88;4980691;28;20074;-90
2023/07/12 03:08:20;;;;;;;7.17;2.87;;;;;;;15.51;100.00;100797.59;4984412;28;20065;-89
2023/07/12 03:10:46;;;;;;;5.00;2.58;;;;;;;15.54;100.00;100807.00;4983010;28;20065;-89
2023/07/12 03:13:11;;;;;;;9.67;3.00;;;;;;;15.62;100.00;100816.34;4990372;28;20057;-90
2023/07/12 03:15:38;;;;;;;4.37;2.57;;;;;;;15.66;100.00;100831.66;4987890;28;20031;-89
2023/07/12 03:18:03;;;;;;;4.78;2.72;;;;;;;15.68;100.00;100820.59;4988284;28;20019;-89
2023/07/12 03:20:29;;;;;;;5.37;2.83;;;;;;;15.72;100.00;100818.88;4993203;28;20018;-90
2023/07/12 03:22:54;;;;;;;6.43;2.70;;;;;;;15.70;100.00;100821.09;4987158;28;20278;-91
2023/07/12 03:25:19;;;;;;;5.70;3.00;;;;;;;15.64;100.00;100808.75;4986119;28;20023;-90
2023/07/12 03:27:47;;;;;;;4.73;2.53;;;;;;;15.64;100.00;100825.75;4983908;28;20088;-90
2023/07/12 03:30:13;;;;;;;8.15;2.80;;;;;;;15.48;100.00;100803.56;4989508;28;20026;-90
2023/07/12 03:32:38;;;;;;;6.57;2.72;;;;;;;15.60;100.00;100838.25;4987070;28;20031;-90
2023/07/12 03:35:04;;;;;;;6.33;2.90;;;;;;;15.42;100.00;100810.13;4987907;28;20086;-90
2023/07/12 03:37:29;;;;;;;6.00;2.92;;;;;;;15.58;100.00;100845.84;4984552;28;20109;-91
2023/07/12 03:39:55;;;;;;;5.20;2.67;;;;;;;15.59;100.00;100842.84;4985036;28;20526;-90
2023/07/12 03:42:21;;;;;;;4.30;2.83;;;;;;;15.64;100.00;100843.84;4983530;28;20891;-91
2023/07/12 03:44:46;;;;;;;5.53;2.83;;;;;;;15.64;100.00;100841.16;4983197;28;20127;-91
2023/07/12 03:47:12;;;;;;;4.50;3.47;;;;;;;15.64;100.00;100847.34;4984700;28;20243;-91
2023/07/12 03:49:37;;;;;;;8.43;3.40;;;;;;;15.54;100.00;100842.91;4983680;28;20087;-90
2023/07/12 03:52:03;;;;;;;7.83;3.17;;;;;;;15.61;100.00;100856.06;4982399;28;20110;-90
2023/07/12 03:54:28;;;;;;;10.47;3.53;;;;;;;15.71;100.00;100855.09;4985052;28;20074;-91
2023/07/12 03:56:54;;;;;;;7.88;3.90;;;;;;;15.56;100.00;100854.22;4985975;28;20113;-90
2023/07/12 03:59:19;;;;;;;8.20;3.97;;;;;;;15.47;100.00;100853.25;4987655;28;20049;-90
2023/07/12 04:01:44;;;;;;;5.67;4.43;;;;;;;15.39;100.00;100848.50;4980640;28;20116;-91
2023/07/12 04:04:10;;;;;;;7.88;4.50;;;;;;;15.39;100.00;100854.72;4981128;28;20027;-91
2023/07/12 04:06:35;;;;;;;7.60;4.30;;;;;;;15.36;100.00;100854.47;4977622;28;20127;-91
2023/07/12 04:09:02;;;;;;;8.53;4.70;;;;;;;15.42;100.00;100864.94;4976475;28;20045;-90
2023/07/12 04:11:32;;;;;;;11.10;4.68;;;;;;;15.35;100.00;100850.97;4973716;28;20109;-91
2023/07/12 04:14:02;;;;;;;12.18;4.72;;;;;;;15.36;100.00;100852.59;4975504;28;20391;-91
2023/07/12 04:16:29;;;;;;;10.00;4.40;;;;;;;15.41;100.00;100874.13;4976075;28;20034;-91
2023/07/12 04:18:55;;;;;;;13.00;5.43;;;;;;;15.27;100.00;100847.03;4975847;28;20019;-90
2023/07/12 04:21:21;;;;;;;8.20;4.77;;;;;;;15.26;100.00;100850.81;4974942;28;20289;-91
2023/07/12 04:23:48;;;;;;;13.90;4.88;;;;;;;15.23;100.00;100851.41;4977509;28;20510;-91
2023/07/12 04:26:13;;;;;;;11.07;4.97;;;;;;;15.15;100.00;100846.66;4974300;28;20030;-91
2023/07/12 04:28:39;;;;;;;10.10;4.85;;;;;;;15.11;100.00;100856.41;4975420;28;20038;-91
2023/07/12 04:31:08;;;;;;;9.97;5.00;;;;;;;15.20;100.00;100878.16;4988721;28;20457;-90
2023/07/12 04:33:34;;;;;;;15.17;5.90;;;;;;;15.08;100.00;100838.09;4989766;28;20291;-90
2023/07/12 04:36:04;;;;;;;15.27;6.05;;;;;;;15.28;100.00;100851.34;4978828;28;20392;-90
2023/07/12 04:38:29;;;;;;;14.63;5.20;;;;;;;15.38;100.00;100839.63;4993666;28;20027;-91
2023/07/12 04:40:55;;;;;;;13.37;5.43;;;;;;;15.64;100.00;100860.06;4987258;28;20290;-91
2023/07/12 04:43:22;;;;;;;9.02;4.15;;;;;;;15.59;100.00;100828.53;4979134;28;20022;-91
2023/07/12 04:45:48;;;;;;;9.43;4.10;;;;;;;15.76;100.00;100857.72;4975428;28;20870;-90
2023/07/12 04:48:14;;;;;;;11.50;3.70;;;;;;;15.94;100.00;100876.97;4975376;28;20030;-91
2023/07/12 04:50:40;;;;;;;8.18;3.42;;;;;;;15.69;100.00;100828.38;4974286;28;20023;-91
2023/07/12 04:53:05;;;;;;;9.97;3.53;;;;;;;15.59;100.00;100834.72;4974928;28;20514;-91
2023/07/12 04:55:30;;;;;;;9.47;3.30;;;;;;;15.57;100.00;100836.13;4974317;28;20054;-91
2023/07/12 04:57:56;;;;;;;9.25;3.30;;;;;;;15.71;100.00;100868.59;4974318;28;20050;-91
2023/07/12 05:00:23;;;;;;;6.90;3.17;;;;;;;15.78;100.00;100860.16;4974256;28;20573;-91
2023/07/12 05:02:49;;;;;;;9.40;3.30;;;;;;;16.18;100.00;100857.94;4976056;28;20325;-91
2023/07/12 05:05:15;;;;;;;9.25;3.42;;;;;;;16.68;100.00;100859.28;4975058;28;20031;-91
2023/07/12 05:07:41;;;;;;;7.00;3.00;;;;;;;17.47;100.00;100879.97;4975237;28;20030;-91
2023/07/12 05:10:09;;;;;;;9.85;2.75;;;;;;;18.35;100.00;100891.56;4974666;28;20031;-90
2023/07/12 05:12:35;;;;;;;6.90;2.70;;;;;;;18.72;100.00;100877.91;4974199;28;20049;-91
2023/07/12 05:15:01;;;;;;;7.77;2.63;;;;;;;19.14;100.00;100896.63;4973885;28;20050;-91
2023/07/12 05:17:28;;;;;;;8.30;2.57;;;;;;;19.21;100.00;100884.19;4973853;28;20286;-92
2023/07/12 05:19:53;;;;;;;5.93;2.75;;;;;;;19.63;100.00;100902.03;4972495;28;20536;-91
2023/07/12 05:22:19;;;;;;;9.75;2.72;;;;;;;19.79;100.00;100878.69;4974175;28;20030;-93
2023/07/12 05:24:44;;;;;;;7.17;2.40;;;;;;;20.41;100.00;100909.41;4973985;28;20035;-93
2023/07/12 05:27:10;;;;;;;7.07;2.60;;;;;;;21.05;100.00;100908.91;4973698;28;20031;-92
2023/07/12 05:29:35;;;;;;;7.07;2.40;;;;;;;21.00;100.00;100927.03;4973558;28;20023;-92
2023/07/12 05:32:00;;;;;;;6.30;2.33;;;;;;;20.12;100.00;100921.75;4974002;28;20053;-92
2023/07/12 05:34:26;;;;;;;9.83;2.40;;;;;;;19.18;100.00;100911.97;4973133;28;20141;-93
2023/07/12 05:36:51;;;;;;;10.63;2.77;;;;;;;18.69;100.00;100927.38;4973522;28;20086;-92
2023/07/12 05:39:16;;;;;;;8.33;2.80;;;;;;;18.40;100.00;100893.38;4973838;28;20118;-93
2023/07/12 05:41:42;;;;;;;5.95;2.30;;;;;;;18.66;100.00;100911.69;4973325;28;20485;-92
2023/07/12 05:44:07;;;;;;;7.00;2.50;;;;;;;19.53;100.00;100897.69;4973299;28;20498;-93
2023/07/12 05:46:32;;;;;;;5.17;2.27;;;;;;;20.26;100.00;100915.34;4973115;28;20034;-93
2023/07/12 05:48:58;;;;;;;6.67;2.50;;;;;;;20.64;100.00;100914.63;4973554;28;20027;-93
2023/07/12 05:51:23;;;;;;;6.00;2.37;;;;;;;20.76;100.00;100918.66;4974315;28;20038;-92
2023/07/12 05:53:48;;;;;;;8.63;2.73;;;;;;;20.75;100.00;100925.97;4993546;28;20053;-93
2023/07/12 05:56:14;;;;;;;7.53;2.73;;;;;;;20.43;100.00;100914.53;4974568;28;20109;-93
2023/07/12 05:58:39;;;;;;;6.03;2.40;;;;;;;20.65;100.00;100927.13;4982599;28;20035;-93
2023/07/12 06:01:05;;;;;;;10.33;2.63;;;;;;;20.81;100.00;100937.53;4986785;28;20378;-93
2023/07/12 06:03:32;;;;;;;5.95;2.28;;;;;;;20.59;100.00;100906.66;4973900;28;20030;-93
2023/07/12 06:05:58;;;;;;;7.87;2.40;;;;;;;20.52;100.00;100941.72;4973013;28;20192;-93
2023/07/12 06:08:25;;;;;;;8.73;2.63;;;;;;;20.29;100.00;100922.84;4973651;28;20331;-92
2023/07/12 06:10:50;;;;;;;9.68;2.63;;;;;;;20.03;100.00;100912.00;4977395;28;20030;-93
2023/07/12 06:13:16;;;;;;;7.47;2.80;;;;;;;20.04;100.00;100943.50;4976063;28;20058;-92
2023/07/12 06:15:42;;;;;;;6.50;2.60;;;;;;;19.79;100.00;100941.22;4973889;28;20498;-93
2023/07/12 06:18:08;;;;;;;6.60;2.60;;;;;;;19.60;100.00;100940.69;4972377;28;20026;-93
2023/07/12 06:20:33;;;;;;;7.88;2.70;;;;;;;19.50;100.00;100939.91;4973808;28;20110;-94
2023/07/12 06:22:59;;;;;;;8.03;2.73;;;;;;;19.61;100.00;100953.19;4976543;28;20409;-94
2023/07/12 06:25:26;;;;;;;6.63;2.80;;;;;;;19.63;100.00;100940.06;4977356;28;20286;-94
2023/07/12 06:27:51;;;;;;;11.38;2.90;;;;;;;19.34;100.00;100955.03;4974859;28;20042;-94
2023/07/12 06:30:18;;;;;;;8.53;2.87;;;;;;;18.88;100.00;100932.59;4975058;28;20027;-93
2023/07/12 06:32:44;;;;;;;6.07;2.92;;;;;;;18.96;100.00;100931.06;4973246;28;20463;-94
2023/07/12 06:35:09;;;;;;;6.67;2.93;;;;;;;19.22;100.00;100942.03;4974133;28;20030;-94
2023/07/12 06:37:34;;;;;;;8.32;2.90;;;;;;;19.36;100.00;100969.06;4970864;28;20143;-94
2023/07/12 06:40:00;;;;;;;7.90;3.00;;;;;;;19.12;100.00;100956.69;4973354;28;20487;-95
2023/07/12 06:42:25;;;;;;;10.23;2.73;;;;;;;19.12;100.00;100956.69;4973132;28;20033;-94
2023/07/12 06:44:51;;;;;;;11.18;2.92;;;;;;;19.32;100.00;100995.28;4974445;28;20034;-93
2023/07/12 06:47:17;;;;;;;9.43;3.37;;;;;;;19.04;100.00;100968.31;4974108;28;20111;-94
2023/07/12 06:49:43;;;;;;;8.48;3.33;;;;;;;18.73;100.00;100955.50;4973385;28;20027;-94
2023/07/12 06:52:12;;;;;;;11.25;3.30;;;;;;;18.85;100.00;100995.66;4973413;28;20081;-95
2023/07/12 06:54:38;;;;;;;8.77;2.97;;;;;;;18.64;100.00;100974.44;4973561;28;20078;-95
2023/07/12 06:57:04;;;;;;;6.53;2.60;;;;;;;18.67;100.00;100992.81;4974482;28;20278;-94
2023/07/12 06:59:30;;;;;;;6.90;2.63;;;;;;;18.35;100.00;100972.16;4977063;28;20117;-94
2023/07/12 07:01:55;;;;;;;8.70;3.30;;;;;;;18.27;100.00;100973.69;4976083;28;20039;-95
2023/07/12 07:04:21;;;;;;;7.40;2.85;;;;;;;18.39;100.00;100997.56;4977294;28;20054;-94
2023/07/12 07:06:46;;;;;;;8.37;2.77;;;;;;;18.46;100.00;100995.19;4976526;28;20031;-94
2023/07/12 07:09:12;;;;;;;8.70;3.00;;;;;;;18.65;100.00;101010.50;4977692;28;20034;-93
2023/07/12 07:11:37;;;;;;;6.53;2.60;;;;;;;18.45;100.00;100993.59;4982411;28;20011;-94
2023/07/12 07:14:03;;;;;;;10.47;3.00;;;;;;;18.45;100.00;101005.25;4995005;28;20100;-96
2023/07/12 07:16:29;;;;;;;9.60;2.70;;;;;;;18.38;100.00;100993.25;4977847;28;20026;-95
2023/07/12 07:18:55;;;;;;;9.13;3.03;;;;;;;18.67;100.00;101005.56;4990311;28;20011;-94
2023/07/12 07:21:21;;;;;;;8.77;2.77;;;;;;;18.76;100.00;100982.03;4986378;28;20271;-95
2023/07/12 07:23:46;;;;;;;6.07;2.55;;;;;;;19.06;100.00;100990.53;4976333;28;20035;-96
2023/07/12 07:26:12;;;;;;;11.57;2.77;;;;;;;19.71;100.00;101015.41;4978049;28;20035;-96
2023/07/12 07:28:39;;;;;;;8.65;2.80;;;;;;;20.37;100.00;101016.47;4978063;28;20026;-96
2023/07/12 07:31:09;;;;;;;4.93;2.40;;;;;;;20.60;100.00;100998.09;4979472;28;20541;-95
2023/07/12 07:33:37;;;;;;;8.63;3.20;;;;;;;20.77;96.77;101013.59;4980078;28;20302;-95
2023/07/12 07:36:06;;;;;;;11.50;2.72;;;;;;;20.73;97.81;101031.66;4981390;28;20046;-95
2023/07/12 07:38:33;;;;;;;8.38;2.50;;;;;;;20.72;97.47;101032.81;4981987;28;20037;-96
2023/07/12 07:40:58;;;;;;;5.07;2.40;;;;;;;20.60;97.25;101010.88;4981535;28;20434;-96
2023/07/12 07:43:24;;;;;;;8.17;2.50;;;;;;;20.61;97.75;101013.28;4981325;28;20031;-96
2023/07/12 07:45:49;;;;;;;9.00;2.67;;;;;;;20.75;96.81;101055.88;4978674;28;20491;-96
2023/07/12 07:48:21;;;;;;;7.97;2.40;;;;;;;20.34;99.54;101009.75;4981181;28;20027;-96
2023/07/12 07:50:56;;;;;;;6.38;2.70;;;;;;;20.34;98.02;101009.75;4982121;28;20121;-96
2023/07/12 08:02:52;;;;;;;8.57;3.08;;;;;;;22.05;94.93;101070.22;4974000;28;20055;-96
2023/07/12 08:09:32;;;;;;;8.45;2.40;;;;;;;21.68;88.64;101031.00;4977169;28;20042;-96
